createdAt,value
2019-02-25T00:00:31.140Z,4.84
2019-02-25T00:05:32.777Z,4.76
2019-02-25T00:10:34.431Z,4.67
2019-02-25T00:15:36.017Z,4.49
2019-02-25T00:20:37.683Z,4.33
2019-02-25T00:25:39.703Z,4.27
2019-02-25T00:30:41.375Z,4.25
2019-02-25T00:35:42.894Z,4.24
2019-02-25T00:40:44.451Z,4.22
2019-02-25T00:45:45.987Z,4.08
2019-02-25T00:50:47.901Z,4.08
2019-02-25T00:55:49.730Z,4.08
2019-02-25T01:00:51.346Z,4.09
2019-02-25T01:05:52.935Z,4.02
2019-02-25T01:10:54.501Z,3.98
2019-02-25T01:15:56.055Z,3.94
2019-02-25T01:20:57.634Z,3.91
2019-02-25T01:25:59.218Z,3.85
2019-02-25T01:31:00.836Z,3.80
2019-02-25T01:36:02.343Z,3.75
2019-02-25T01:41:04.042Z,3.71
2019-02-25T01:46:05.652Z,3.67
2019-02-25T01:51:07.265Z,3.52
2019-02-25T01:56:09.182Z,3.32
2019-02-25T02:01:10.812Z,3.21
2019-02-25T02:06:12.555Z,3.48
2019-02-25T02:11:14.488Z,3.54
2019-02-25T02:16:16.088Z,3.51
2019-02-25T02:21:17.693Z,3.51
2019-02-25T02:26:21.051Z,3.48
2019-02-25T02:31:23.508Z,3.47
2019-02-25T02:36:25.142Z,3.45
2019-02-25T02:41:26.775Z,3.44
2019-02-25T02:47:14.414Z,3.39
2019-02-25T02:52:16.063Z,3.37
2019-02-25T02:57:17.609Z,3.30
2019-02-25T03:02:19.236Z,3.26
2019-02-25T03:07:21.204Z,3.36
2019-02-25T03:12:22.787Z,3.37
2019-02-25T03:17:24.479Z,3.32
2019-02-25T03:22:26.081Z,3.27
2019-02-25T03:27:28.080Z,3.24
2019-02-25T03:32:29.664Z,3.26
2019-02-25T03:37:31.244Z,3.24
2019-02-25T03:42:32.836Z,3.23
2019-02-25T03:47:34.391Z,3.17
2019-02-25T03:52:35.962Z,3.17
2019-02-25T03:57:37.583Z,3.14
2019-02-25T04:02:39.185Z,3.05
2019-02-25T04:07:40.889Z,2.98
2019-02-25T04:12:42.595Z,2.91
2019-02-25T04:17:44.445Z,2.88
2019-02-25T04:22:46.074Z,3.00
2019-02-25T04:27:47.819Z,3.24
2019-02-25T04:32:49.424Z,3.16
2019-02-25T04:37:50.999Z,3.10
2019-02-25T04:42:52.658Z,3.02
2019-02-25T04:47:54.279Z,2.97
2019-02-25T04:52:55.894Z,2.89
2019-02-25T04:57:57.682Z,2.86
2019-02-25T05:02:59.725Z,2.84
2019-02-25T05:08:01.421Z,2.80
2019-02-25T05:13:02.987Z,2.74
2019-02-25T05:18:04.544Z,2.73
2019-02-25T05:23:06.185Z,2.77
2019-02-25T05:28:07.849Z,2.83
2019-02-25T05:33:09.489Z,2.83
2019-02-25T05:38:11.149Z,2.83
2019-02-25T05:43:13.137Z,2.75
2019-02-25T05:48:15.115Z,2.73
2019-02-25T05:53:16.823Z,2.66
2019-02-25T05:58:18.469Z,2.59
2019-02-25T06:03:20.574Z,2.55
2019-02-25T06:08:22.979Z,2.54
2019-02-25T06:13:24.630Z,2.54
2019-02-25T06:18:26.176Z,2.49
2019-02-25T06:23:27.857Z,2.47
2019-02-25T06:28:29.476Z,2.42
2019-02-25T06:33:31.063Z,2.41
2019-02-25T06:38:32.993Z,2.45
2019-02-25T06:43:34.594Z,2.65
2019-02-25T06:48:36.287Z,2.56
2019-02-25T06:53:38.112Z,2.54
2019-02-25T06:58:40.071Z,2.55
2019-02-25T07:03:43.572Z,2.65
2019-02-25T07:08:45.261Z,2.73
2019-02-25T07:13:46.883Z,2.76
2019-02-25T07:18:48.595Z,2.84
2019-02-25T07:23:50.265Z,2.93
2019-02-25T07:28:52.382Z,2.98
2019-02-25T07:33:54.818Z,3.00
2019-02-25T07:38:56.421Z,2.99
2019-02-25T07:43:58.212Z,3.02
2019-02-25T07:48:59.973Z,3.07
2019-02-25T07:54:02.184Z,3.12
2019-02-25T07:59:04.157Z,3.22
2019-02-25T08:04:05.797Z,3.36
2019-02-25T08:09:07.820Z,3.51
2019-02-25T08:14:09.425Z,3.62
2019-02-25T08:19:11.055Z,3.69
2019-02-25T08:24:12.705Z,3.82
2019-02-25T08:29:14.444Z,3.98
2019-02-25T08:34:18.672Z,4.03
2019-02-25T08:39:20.248Z,4.14
2019-02-25T08:44:21.897Z,4.30
2019-02-25T08:49:23.531Z,4.45
2019-02-25T08:54:25.172Z,4.59
2019-02-25T08:59:26.821Z,4.75
2019-02-25T09:04:28.414Z,4.95
2019-02-25T09:09:30.111Z,5.35
2019-02-25T09:14:31.877Z,5.74
2019-02-25T09:19:33.500Z,6.15
2019-02-25T09:24:35.112Z,6.55
2019-02-25T09:29:36.718Z,6.98
2019-02-25T09:34:38.429Z,7.57
2019-02-25T09:39:40.043Z,8.04
2019-02-25T09:44:41.643Z,8.65
2019-02-25T09:49:43.228Z,9.18
2019-02-25T09:54:44.817Z,9.33
2019-02-25T09:59:46.494Z,9.73
2019-02-25T10:04:48.218Z,10.12
2019-02-25T10:09:49.886Z,10.73
2019-02-25T10:14:51.528Z,10.91
2019-02-25T10:19:53.140Z,10.96
2019-02-25T10:24:54.756Z,11.41
2019-02-25T10:29:56.418Z,11.64
2019-02-25T10:34:58.142Z,12.31
2019-02-25T10:39:59.995Z,12.76
2019-02-25T10:45:02.631Z,13.09
2019-02-25T10:50:07.408Z,13.40
2019-02-25T10:55:13.038Z,13.66
2019-02-25T11:00:14.718Z,13.98
2019-02-25T11:05:16.657Z,14.24
2019-02-25T11:10:20.235Z,14.52
2019-02-25T11:15:21.893Z,14.45
2019-02-25T11:20:23.500Z,14.61
2019-02-25T11:25:26.305Z,14.83
2019-02-25T11:30:29.879Z,14.76
2019-02-25T11:35:34.053Z,14.28
2019-02-25T11:40:36.519Z,12.58
2019-02-25T11:45:39.085Z,11.60
2019-02-25T11:50:40.708Z,11.49
2019-02-25T11:55:42.747Z,12.13
2019-02-25T12:00:44.521Z,12.58
2019-02-25T12:05:46.133Z,13.32
2019-02-25T12:10:48.172Z,13.87
2019-02-25T12:15:50.069Z,13.24
2019-02-25T12:20:51.683Z,13.95
2019-02-25T12:25:53.830Z,14.46
2019-02-25T12:30:55.445Z,14.89
2019-02-25T12:35:57.048Z,15.09
2019-02-25T12:40:58.623Z,15.36
2019-02-25T12:46:00.563Z,15.60
2019-02-25T12:51:02.237Z,15.92
2019-02-25T12:56:03.899Z,16.13
2019-02-25T13:01:05.527Z,16.44
2019-02-25T13:06:07.180Z,16.66
2019-02-25T13:11:08.930Z,16.87
2019-02-25T13:16:10.570Z,17.04
2019-02-25T13:21:13.086Z,17.24
2019-02-25T13:26:15.069Z,17.37
2019-02-25T13:31:16.657Z,17.59
2019-02-25T13:36:18.253Z,17.83
2019-02-25T13:41:19.850Z,18.07
2019-02-25T13:46:21.950Z,18.13
2019-02-25T13:51:23.576Z,18.25
2019-02-25T13:56:25.145Z,18.48
2019-02-25T14:01:28.927Z,18.61
2019-02-25T14:06:30.338Z,18.74
2019-02-25T14:11:32.419Z,18.93
2019-02-25T14:16:34.112Z,19.05
2019-02-25T14:21:36.708Z,19.12
2019-02-25T14:26:38.331Z,19.24
2019-02-25T14:31:40.208Z,19.34
2019-02-25T14:36:42.218Z,19.50
2019-02-25T14:41:43.844Z,19.65
2019-02-25T14:46:45.536Z,19.79
2019-02-25T14:51:48.855Z,19.85
2019-02-25T14:56:52.756Z,19.97
2019-02-25T15:01:56.873Z,20.01
2019-02-25T15:06:58.271Z,20.11
2019-02-25T15:12:01.781Z,20.02
2019-02-25T15:17:03.885Z,20.05
2019-02-25T15:22:05.962Z,20.08
2019-02-25T15:27:09.303Z,20.00
2019-02-25T15:32:11.398Z,19.91
2019-02-25T15:37:13.962Z,19.74
2019-02-25T15:42:15.856Z,19.65
2019-02-25T15:47:17.856Z,19.74
2019-02-25T15:52:21.067Z,19.78
2019-02-25T15:57:24.527Z,19.77
2019-02-25T16:02:27.715Z,19.81
2019-02-25T16:07:30.248Z,19.82
2019-02-25T16:12:35.691Z,19.74
2019-02-25T16:17:37.661Z,19.60
2019-02-25T16:22:40.799Z,19.52
2019-02-25T16:27:45.099Z,19.49
2019-02-25T16:32:48.405Z,19.33
2019-02-25T16:37:50.722Z,19.17
2019-02-25T16:42:57.059Z,18.92
2019-02-25T16:47:57.216Z,18.70
2019-02-25T16:52:58.877Z,18.41
2019-02-25T16:58:03.486Z,18.12
2019-02-25T17:03:06.532Z,17.82
2019-02-25T17:08:10.393Z,17.46
2019-02-25T17:13:14.893Z,17.05
2019-02-25T17:18:16.934Z,16.73
2019-02-25T17:23:18.644Z,16.39
2019-02-25T17:28:22.277Z,16.06
2019-02-25T17:33:24.582Z,15.69
2019-02-25T17:38:29.015Z,15.38
2019-02-25T17:43:32.120Z,15.13
2019-02-25T17:48:36.535Z,14.86
2019-02-25T17:53:38.161Z,14.55
2019-02-25T17:58:40.708Z,14.24
2019-02-25T18:03:46.019Z,13.89
2019-02-25T18:08:48.400Z,13.57
2019-02-25T18:13:51.268Z,13.25
2019-02-25T18:18:54.455Z,13.10
2019-02-25T18:23:57.267Z,13.00
2019-02-25T18:28:59.303Z,12.89
2019-02-25T18:34:01.177Z,12.67
2019-02-25T18:39:05.299Z,12.40
2019-02-25T18:44:07.584Z,12.21
2019-02-25T18:49:11.708Z,12.01
2019-02-25T18:54:16.959Z,11.86
2019-02-25T18:59:20.282Z,11.62
2019-02-25T19:04:22.050Z,11.42
2019-02-25T19:09:25.655Z,11.24
2019-02-25T19:14:28.881Z,11.10
2019-02-25T19:19:34.005Z,10.74
2019-02-25T19:24:35.858Z,10.51
2019-02-25T19:29:38.489Z,10.35
2019-02-25T19:34:40.234Z,10.26
2019-02-25T19:39:43.800Z,10.18
2019-02-25T19:44:45.823Z,10.04
2019-02-25T19:49:47.386Z,9.90
2019-02-25T19:54:50.707Z,9.77
2019-02-25T19:59:53.543Z,9.66
2019-02-25T20:04:56.615Z,9.50
2019-02-25T20:09:58.684Z,9.38
2019-02-25T20:15:00.498Z,9.21
2019-02-25T20:20:08.180Z,9.07
2019-02-25T20:25:16.693Z,8.93
2019-02-25T20:30:19.643Z,8.78
2019-02-25T20:35:24.515Z,8.67
2019-02-25T20:40:32.862Z,8.59
2019-02-25T20:45:35.932Z,8.51
2019-02-25T20:50:37.564Z,8.43
2019-02-25T20:55:39.267Z,8.35
2019-02-25T21:00:42.015Z,8.31
2019-02-25T21:05:45.172Z,8.21
2019-02-25T21:10:47.046Z,8.07
2019-02-25T21:15:50.809Z,7.99
2019-02-25T21:20:53.753Z,7.88
2019-02-25T21:25:59.494Z,7.80
2019-02-25T21:31:00.653Z,7.68
2019-02-25T21:36:02.335Z,7.61
2019-02-25T21:41:03.960Z,7.55
2019-02-25T21:46:05.549Z,7.45
2019-02-25T21:51:09.608Z,7.40
2019-02-25T21:56:10.990Z,7.42
2019-02-25T22:01:12.654Z,7.32
2019-02-25T22:06:18.071Z,7.19
2019-02-25T22:11:19.822Z,7.18
2019-02-25T22:16:23.157Z,7.11
2019-02-25T22:21:24.920Z,6.98
2019-02-25T22:26:29.139Z,6.87
2019-02-25T22:31:32.361Z,6.80
2019-02-25T22:36:34.722Z,6.70
2019-02-25T22:41:36.356Z,6.58
2019-02-25T22:46:39.667Z,6.43
2019-02-25T22:51:41.424Z,6.38
2019-02-25T22:56:43.010Z,6.29
2019-02-25T23:01:44.594Z,6.24
2019-02-25T23:06:48.823Z,6.13
2019-02-25T23:11:52.692Z,6.03
2019-02-25T23:16:56.157Z,5.94
2019-02-25T23:21:57.762Z,5.87
2019-02-25T23:26:59.682Z,5.81
2019-02-25T23:32:02.530Z,5.76
2019-02-25T23:37:04.371Z,5.69
2019-02-25T23:42:07.302Z,5.57
2019-02-25T23:47:10.954Z,5.46
2019-02-25T23:52:12.619Z,5.35
2019-02-25T23:57:14.716Z,5.30
